Latest Weather Observations for Rockhampton

IDQ60801

Issued at 8:35 pm EST Tuesday 29 July 2014 (issued every 30 minutes, with the page automatically refreshed every 10 minutes)

About weather observations | Map of weather stations | Latest weather observations for QLD | Other Formats
Station Details ID: 039083 Name: ROCKHAMPTON AERO Lat: -23.38 Lon: 150.48 Height: 10.4 m
Data from the previous 72 hours. | See also: Recent months at Rockhampton
Date/Time
EST
Temp
°C
App
Temp
°C
Dew
Point
Rel
Hum
%
Delta-T
°C
Wind Press
QNH
hPa
Press
MSL
hPa
Rain
since 9 am
mm
Dir
 
Spd
km/h
Gust
km/h
Spd
kts
Gust
kts
29/08:30pm 15.5 13.7 9.5 67 3.1 W 9 13 5 7 1021.4 - 0.0
29/08:00pm 17.4 16.9 9.3 59 4.2 E 2 7 1 4 1021.4 - 0.0
29/07:30pm 18.1 16.6 8.6 54 4.9 NNE 6 9 3 5 1021.2 - 0.0
29/07:00pm 18.2 16.2 8.7 54 4.9 NNE 9 13 5 7 1020.8 - 0.0
29/06:30pm 18.9 16.0 9.6 54 4.9 NNE 15 20 8 11 1020.4 - 0.0
29/06:00pm 19.5 16.4 10.4 55 4.9 N 17 20 9 11 1020.1 1020.1 0.0
29/05:30pm 20.9 17.4 10.2 50 5.8 N 19 24 10 13 1019.8 - 0.0
29/05:00pm 22.4 18.6 9.8 44 6.8 N 20 28 11 15 1019.4 - 0.0
29/04:30pm 23.8 20.6 9.9 41 7.6 NNE 17 22 9 12 1019.1 - 0.0
29/04:00pm 24.8 22.3 9.6 38 8.3 ENE 13 19 7 10 1019.0 - 0.0
29/03:30pm 24.6 21.5 9.0 37 8.4 ESE 15 20 8 11 1019.1 - 0.0
29/03:00pm 25.4 22.5 8.2 33 9.2 ESE 13 20 7 11 1019.3 1019.3 0.0
29/02:30pm 25.1 21.9 6.9 31 9.5 SSE 13 20 7 11 1019.5 - 0.0
29/02:00pm 25.3 22.4 6.3 29 9.8 E 11 19 6 10 1019.6 - 0.0
29/01:30pm 25.2 23.3 9.2 36 8.7 E 9 15 5 8 1020.0 - 0.0
29/01:00pm 24.6 22.7 9.0 37 8.4 E 9 15 5 8 1020.4 - 0.0
29/12:30pm 23.8 22.0 9.6 40 7.7 ESE 9 15 5 8 1021.0 - 0.0
29/12:00pm 24.1 22.5 10.3 41 7.6 NNW 9 17 5 9 1021.6 1021.6 0.0
29/11:30am 23.4 22.6 11.6 47 6.6 N 7 13 4 7 1022.3 - 0.0
29/11:00am 22.6 22.1 11.9 50 6.0 SSE 6 11 3 6 1022.9 - 0.0
29/10:30am 22.1 20.9 11.7 51 5.8 NNW 9 15 5 8 1023.3 - 0.0
29/10:00am 20.9 20.5 12.5 58 4.7 WSW 6 9 3 5 1023.6 - 0.0
29/09:30am 19.8 20.5 13.5 67 3.6 SSE 2 7 1 4 1024.0 - 0.0
29/09:00am 16.4 17.3 13.0 80 1.9 CALM 0 6 0 3 1024.2 1024.2 0.0
29/08:30am 14.0 14.2 11.9 87 1.1 SW 2 6 1 3 1024.2 - 0.0
29/08:00am 12.4 12.9 11.6 95 0.4 CALM 0 0 0 0 1024.0 - 0.0
29/07:48am 11.9 12.4 11.5 97 0.2 CALM 0 0 0 0 1023.9 - 0.0
29/07:40am 11.2 11.5 10.8 97 0.2 CALM 0 - 0 - 1023.9 - 0.0
29/07:30am 10.6 10.8 10.4 99 0.1 CALM 0 - 0 - 1023.8 - 0.0
29/07:26am 10.4 10.5 10.0 97 0.2 CALM 0 - 0 - 1023.8 - 0.0
29/07:00am 9.2 9.0 9.0 99 0.1 CALM 0 - 0 - 1023.5 - 0.0
29/06:30am 9.4 9.2 9.2 99 0.1 CALM 0 - 0 - 1023.2 - 0.0
29/06:00am 10.0 10.0 9.8 99 0.1 SW 0 0 0 0 1022.8 1022.8 0.0
29/05:56am 10.1 10.1 9.9 99 0.1 CALM 0 - 0 - 1022.8 - 0.0
29/05:30am 10.2 10.3 10.0 99 0.1 CALM 0 - 0 - 1022.6 - 0.0
29/05:02am 10.4 10.5 10.0 97 0.2 CALM 0 - 0 - 1022.2 - 0.0
29/05:00am 10.3 10.3 9.9 97 0.2 CALM 0 - 0 - 1022.2 - 0.0
29/04:58am 10.3 10.3 9.7 96 0.3 CALM 0 - 0 - 1022.2 - 0.0
29/04:30am 10.5 10.5 9.7 95 0.4 CALM 0 0 0 0 1021.9 - 0.0
29/04:00am 10.3 9.8 9.5 95 0.4 SW 2 6 1 3 1021.6 - 0.0
29/03:30am 11.0 11.1 10.2 95 0.4 CALM 0 0 0 0 1021.4 - 0.0
29/03:00am 11.2 11.4 10.4 95 0.4 CALM 0 0 0 0 1021.2 1021.2 0.0
29/02:30am 11.1 10.0 10.1 94 0.5 SSW 6 7 3 4 1021.4 - 0.0
29/02:00am 11.6 11.3 10.2 91 0.7 SSW 2 6 1 3 1021.3 - 0.0
29/01:31am 11.6 10.5 9.8 89 0.9 S 6 7 3 4 1021.6 - 0.0
29/01:30am 11.6 10.5 9.8 89 0.9 S 6 7 3 4 1021.6 - 0.0
29/01:12am 12.4 11.7 11.3 93 0.6 S 6 9 3 5 1021.6 - 0.0
29/01:00am 13.1 12.6 12.0 93 0.6 S 6 9 3 5 1021.6 - 0.0
29/12:30am 13.1 12.5 11.6 91 0.8 ENE 6 9 3 5 1021.9 - 0.0
29/12:00am 13.4 14.0 11.9 91 0.8 NNE 0 0 0 0 1022.0 1022.0 0.0
 
Date/Time
EST
Temp
°C
App
Temp
°C
Dew
Point
Rel
Hum
%
Delta-T
°C
Wind Press
QNH
hPa
Press
MSL
hPa
Rain
since 9 am
mm
Dir
 
Spd
km/h
Gust
km/h
Spd
kts
Gust
kts
28/11:30pm 13.8 13.0 11.7 87 1.1 NE 7 9 4 5 1022.2 - 0.0
28/11:00pm 13.6 14.1 11.7 88 1.0 CALM 0 0 0 0 1022.3 - 0.0
28/10:30pm 14.2 14.0 11.8 85 1.3 S 4 6 2 3 1022.3 - 0.0
28/10:00pm 15.6 15.1 11.9 78 2.0 S 6 7 3 4 1022.2 - 0.0
28/09:30pm 15.5 14.9 11.6 77 2.1 SE 6 7 3 4 1022.0 - 0.0
28/09:00pm 16.5 15.8 11.9 74 2.5 SW 7 9 4 5 1021.9 1021.9 0.0
28/08:30pm 16.9 16.1 11.7 71 2.8 WSW 7 9 4 5 1021.7 - 0.0
28/08:00pm 18.1 16.9 11.5 65 3.6 S 9 11 5 6 1021.4 - 0.0
28/07:30pm 18.9 18.1 11.8 63 3.9 E 7 9 4 5 1021.2 - 0.0
28/07:00pm 18.8 17.0 12.1 65 3.7 NE 13 17 7 9 1020.7 - 0.0
28/06:30pm 19.1 16.6 12.3 64 3.8 NNE 17 20 9 11 1020.3 - 0.0
28/06:00pm 19.8 16.6 11.4 58 4.6 N 19 26 10 14 1020.0 1020.0 0.0
28/05:30pm 20.9 17.5 11.3 54 5.3 N 20 26 11 14 1019.6 - 0.0
28/05:00pm 22.4 18.9 11.0 48 6.3 NNE 20 28 11 15 1019.3 - 0.0
28/04:30pm 23.8 20.6 11.3 45 7.0 NNE 19 28 10 15 1018.9 - 0.0
28/04:00pm 24.4 20.9 11.0 43 7.5 NNE 20 26 11 14 1018.8 - 0.0
28/03:30pm 25.5 23.0 4.9 26 10.4 S 7 11 4 6 1018.6 - 0.0
28/03:00pm 25.8 23.5 5.7 27 10.3 SSE 7 13 4 7 1018.9 1018.9 0.0
28/02:30pm 26.2 23.2 3.9 23 11.1 W 9 15 5 8 1019.3 - 0.0
28/02:00pm 25.5 22.5 3.9 24 10.7 WSW 9 15 5 8 1019.7 - 0.0
28/01:30pm 25.8 23.4 4.4 25 10.7 E 6 11 3 6 1020.4 - 0.0
28/01:00pm 25.3 22.2 5.4 27 10.1 S 11 20 6 11 1020.8 - 0.0
28/12:30pm 24.6 22.9 6.0 30 9.5 WNW 4 7 2 4 1021.6 - 0.0
28/12:00pm 25.4 23.1 5.9 28 10.0 E 7 15 4 8 1022.1 1022.1 0.0
28/11:30am 24.1 21.9 8.0 35 8.5 NE 9 17 5 9 1022.7 - 0.0
28/11:00am 23.2 21.4 12.2 50 6.2 ESE 13 19 7 10 1023.2 - 0.0
28/10:30am 22.1 20.1 12.6 55 5.4 ESE 15 20 8 11 1023.6 - 0.0
28/10:00am 21.3 20.2 13.2 60 4.6 SE 11 19 6 10 1024.0 - 0.0
28/09:30am 19.4 17.4 12.8 65 3.7 SE 15 20 8 11 1024.0 - 0.0
28/09:00am 18.9 17.2 12.6 67 3.5 ESE 13 20 7 11 1024.0 1024.0 0.0
28/08:30am 17.4 17.2 13.5 78 2.2 ESE 7 13 4 7 1023.8 - 0.0
28/08:00am 14.8 14.8 13.5 92 0.7 SE 6 7 3 4 1023.6 - 0.0
28/07:53am 13.4 13.0 12.5 94 0.5 S 6 7 3 4 1023.5 - 0.0
28/07:30am 11.8 10.5 11.4 97 0.2 S 9 13 5 7 1023.3 - 0.0
28/07:19am 11.1 9.7 10.9 99 0.1 S 9 13 5 7 1023.2 - 0.0
28/07:14am 10.8 9.3 10.6 99 0.1 S 9 13 5 7 1023.2 - 0.0
28/07:00am 10.6 8.7 10.4 99 0.1 S 11 15 6 8 1023.1 - 0.0
28/06:30am 9.8 8.3 9.2 96 0.3 SW 7 9 4 5 1022.6 - 0.0
28/06:25am 9.5 7.6 8.9 96 0.3 WSW 9 9 5 5 1022.6 - 0.0
28/06:13am 9.8 8.4 8.8 93 0.5 SW 6 7 3 4 1022.4 - 0.0
28/06:00am 10.4 9.9 9.4 93 0.5 SSW 2 7 1 4 1022.3 1022.3 0.0
28/05:30am 10.7 9.5 9.5 92 0.6 S 6 7 3 4 1022.2 - 0.0
28/05:00am 10.7 9.9 9.5 92 0.6 S 4 7 2 4 1022.0 - 0.0
28/04:30am 10.8 10.9 10.0 95 0.4 CALM 0 0 0 0 1021.8 - 0.0
28/04:00am 10.7 10.0 9.9 95 0.4 SSW 4 7 2 4 1021.7 - 0.0
28/03:30am 11.6 11.8 10.4 92 0.6 CALM 0 0 0 0 1021.7 - 0.0
28/03:00am 12.0 10.9 10.6 91 0.7 S 7 11 4 6 1021.9 1021.9 0.0
28/02:30am 11.8 11.4 11.2 96 0.3 S 4 7 2 4 1021.8 - 0.0
28/02:00am 12.1 12.0 10.9 92 0.6 SSW 2 7 1 4 1021.9 - 0.0
28/01:30am 12.2 11.9 11.4 95 0.4 SSE 4 7 2 4 1022.3 - 0.0
28/01:00am 12.1 12.4 10.9 92 0.6 CALM 0 0 0 0 1022.6 - 0.0
28/12:30am 12.5 12.9 11.2 92 0.7 CALM 0 0 0 0 1022.7 - 0.0
28/12:00am 12.9 12.2 11.4 91 0.8 SSE 6 7 3 4 1023.1 1023.1 0.0
 
Date/Time
EST
Temp
°C
App
Temp
°C
Dew
Point
Rel
Hum
%
Delta-T
°C
Wind Press
QNH
hPa
Press
MSL
hPa
Rain
since 9 am
mm
Dir
 
Spd
km/h
Gust
km/h
Spd
kts
Gust
kts
27/11:30pm 12.9 12.5 11.0 88 1.0 WSW 4 7 2 4 1023.1 - 0.0
27/11:00pm 14.1 14.4 12.2 88 1.0 NNE 2 6 1 3 1023.2 - 0.0
27/10:30pm 13.5 14.0 11.6 88 1.0 CALM 0 7 0 4 1023.4 - 0.0
27/10:00pm 14.0 14.7 12.1 88 1.0 CALM 0 6 0 3 1023.2 - 0.0
27/09:30pm 15.7 15.7 12.4 81 1.8 S 4 7 2 4 1023.2 - 0.0
27/09:00pm 15.7 16.5 12.4 81 1.8 CALM 0 6 0 3 1023.0 1023.0 0.0
27/08:30pm 17.0 16.3 12.1 73 2.7 S 7 11 4 6 1022.6 - 0.0
27/08:00pm 17.5 16.9 12.2 71 2.9 S 7 11 4 6 1022.2 - 0.0
27/07:30pm 18.4 18.7 12.2 67 3.4 E 2 9 1 5 1021.7 - 0.0
27/07:00pm 18.9 18.0 12.6 67 3.5 N 9 13 5 7 1021.3 - 0.0
27/06:30pm 19.7 18.5 12.8 64 3.9 NNE 11 17 6 9 1020.9 - 0.0
27/06:00pm 21.4 20.1 10.1 48 6.1 NNW 7 11 4 6 1020.4 1020.4 0.0
27/05:30pm 24.9 20.2 3.4 24 10.5 SSW 17 20 9 11 1019.9 - 0.0
27/05:00pm 26.3 22.6 4.7 25 10.9 SSW 13 19 7 10 1019.6 - 0.0
27/04:30pm 26.3 23.0 6.6 28 10.3 S 13 19 7 10 1019.6 - 0.0
27/04:00pm 27.1 22.3 4.6 23 11.4 S 19 30 10 16 1019.5 - 0.0
27/03:30pm 26.8 25.4 10.8 36 9.0 ESE 9 17 5 9 1019.5 - 0.0
27/03:00pm 26.3 24.9 10.8 37 8.7 SW 9 15 5 8 1019.5 1019.5 0.0
27/02:30pm 25.9 24.3 11.4 40 8.2 E 11 17 6 9 1019.8 - 0.0
27/02:00pm 25.9 25.2 11.9 41 8.0 SE 7 17 4 9 1020.1 - 0.0
27/01:30pm 25.6 24.4 11.7 42 7.9 ESE 9 15 5 8 1020.7 - 0.0
27/01:00pm 24.8 22.8 11.5 43 7.5 E 13 19 7 10 1021.3 - 0.0
27/12:30pm 25.2 23.5 12.3 44 7.4 E 13 20 7 11 1021.8 - 0.0
27/12:00pm 24.3 22.9 12.2 46 6.9 E 11 17 6 9 1022.3 1022.3 0.0
27/11:30am 23.8 23.0 13.0 50 6.2 SSE 9 15 5 8 1023.0 - 0.0
27/11:00am 22.7 22.4 14.5 60 4.8 SE 9 17 5 9 1023.5 - 0.0
27/10:30am 22.1 22.3 14.8 63 4.3 SSW 7 13 4 7 1023.9 - 0.0
27/10:00am 20.6 22.1 15.7 73 2.9 SW 2 7 1 4 1024.2 - 0.0
27/09:30am 19.2 21.0 15.5 79 2.2 CALM 0 4 0 2 1024.4 - 0.0
27/09:00am 17.0 18.7 15.1 88 1.1 CALM 0 0 0 0 1024.5 1024.5 0.0
27/08:30am 15.3 16.9 14.8 97 0.3 CALM 0 0 0 0 1024.4 - 0.0
27/08:21am 14.8 16.3 14.6 99 0.1 CALM 0 - 0 - 1024.3 - 0.0
27/08:13am 14.3 15.5 13.9 97 0.2 CALM 0 - 0 - 1024.2 - 0.0
27/08:07am 13.9 15.1 13.7 99 0.1 CALM 0 - 0 - 1024.2 - 0.0
27/08:00am 13.8 14.9 13.6 99 0.1 CALM 0 - 0 - 1024.1 - 0.0
27/07:30am 12.8 13.6 12.6 99 0.1 CALM 0 - 0 - 1023.9 - 0.0
27/07:13am 12.5 13.2 12.3 99 0.1 CALM 0 0 0 0 1023.9 - 0.0
27/07:00am 12.3 13.0 12.1 99 0.1 CALM 0 - 0 - 1023.7 - 0.0
27/06:30am 12.4 13.1 12.2 99 0.1 CALM 0 - 0 - 1023.4 - 0.0
27/06:00am 12.3 13.0 12.1 99 0.1 CALM 0 - 0 - 1023.3 1023.3 0.0
27/05:53am 12.2 12.8 12.0 99 0.1 CALM 0 - 0 - 1023.2 - 0.0
27/05:43am 12.1 12.7 11.9 99 0.1 CALM 0 - 0 - 1023.1 - 0.0
27/05:30am 12.2 12.8 12.0 99 0.1 CALM 0 - 0 - 1022.9 - 0.0
27/05:00am 12.3 12.9 11.9 97 0.2 CALM 0 0 0 0 1022.8 - 0.0
27/04:44am 12.5 13.2 12.1 97 0.2 CALM 0 0 0 0 1022.7 - 0.0
27/04:30am 12.6 13.3 12.2 97 0.2 CALM 0 0 0 0 1022.7 - 0.0
27/04:19am 12.9 13.6 12.3 96 0.3 CALM 0 0 0 0 1022.7 - 0.0
27/04:08am 13.2 14.1 12.8 97 0.2 CALM 0 - 0 - 1022.7 - 0.0
27/04:00am 13.3 14.2 12.9 97 0.2 CALM 0 - 0 - 1022.7 - 0.0
27/03:43am 14.2 15.4 13.7 97 0.3 CALM 0 - 0 - 1022.5 - 0.0
27/03:42am 14.1 15.2 13.6 97 0.3 CALM 0 - 0 - 1022.5 - 0.0
27/03:41am 14.0 15.1 13.5 97 0.3 CALM 0 - 0 - 1022.5 - 0.0
27/03:37am 14.0 15.2 13.8 99 0.1 CALM 0 0 0 0 1022.6 - 0.0
27/03:30am 14.0 15.3 14.0 100 0.0 CALM 0 0 0 0 1022.7 - 0.0
27/03:10am 13.9 15.0 13.5 97 0.2 CALM 0 - 0 - 1022.9 - 0.0
27/03:03am 13.6 14.4 12.7 94 0.5 CALM 0 6 0 3 1022.9 - 0.0
27/03:00am 13.0 13.5 12.8 99 0.1 SE 2 6 1 3 1022.9 1022.9 0.0
27/02:58am 12.8 13.3 12.8 100 0.0 SE 2 7 1 4 1022.9 - 0.0
27/02:57am 13.1 13.3 13.1 100 0.0 SE 4 9 2 5 1022.9 - 0.0
27/02:38am 14.4 15.4 14.2 99 0.1 S 2 9 1 5 1023.0 - 0.0
27/02:30am 14.4 15.3 14.0 97 0.2 SSE 2 6 1 3 1023.2 - 0.0
27/02:20am 14.4 14.3 14.0 97 0.2 S 7 11 4 6 1023.1 - 0.0
27/02:00am 14.8 15.1 14.4 97 0.2 SSW 6 9 3 5 1023.2 - 0.0
27/01:59am 14.8 15.5 14.4 97 0.2 SSW 4 9 2 5 1023.2 - 0.0
27/01:30am 15.1 15.9 14.7 97 0.2 NNE 4 6 2 3 1023.5 - 0.0
27/01:19am 15.2 15.5 14.5 96 0.4 NNE 6 7 3 4 1023.6 - 0.0
27/01:00am 15.1 16.6 14.7 97 0.2 CALM 0 - 0 - 1023.7 - 0.0
27/12:59am 15.2 16.8 14.8 97 0.2 CALM 0 - 0 - 1023.7 - 0.0
27/12:30am 15.8 17.5 15.1 96 0.4 CALM 0 0 0 0 1024.3 - 0.0
27/12:00am 16.4 18.2 15.5 94 0.5 CALM 0 0 0 0 1024.3 1024.3 0.0
 
Date/Time
EST
Temp
°C
App
Temp
°C
Dew
Point
Rel
Hum
%
Delta-T
°C
Wind Press
QNH
hPa
Press
MSL
hPa
Rain
since 9 am
mm
Dir
 
Spd
km/h
Gust
km/h
Spd
kts
Gust
kts
26/11:30pm 17.0 18.8 15.6 91 0.8 CALM 0 0 0 0 1024.3 - 0.0
26/11:00pm 17.2 19.1 15.7 91 0.9 CALM 0 0 0 0 1024.5 - 0.0
26/10:30pm 17.6 18.7 15.7 89 1.1 S 4 6 2 3 1024.6 - 0.0
26/10:00pm 17.8 19.7 15.8 88 1.2 CALM 0 4 0 2 1024.9 - 0.0
26/09:30pm 17.7 19.0 16.2 91 0.9 E 4 7 2 4 1024.8 - 0.0
26/09:00pm 18.5 19.5 16.3 87 1.3 SSE 6 9 3 5 1024.9 1024.9 0.0

Other Formats:

Comma delimited format used in spreadsheet applications
http://www.bom.gov.au/fwo/IDQ60801/IDQ60801.94374.axf

JavaScript Object Notation format (JSON) in row-major order
http://www.bom.gov.au/fwo/IDQ60801/IDQ60801.94374.json